createdAt,value
2023-05-04T00:01:58.010Z,11.63
2023-05-04T00:05:01.420Z,11.60
2023-05-04T00:08:04.222Z,11.53
2023-05-04T00:11:09.121Z,11.55
2023-05-04T00:14:11.635Z,11.44
2023-05-04T00:17:14.508Z,11.54
2023-05-04T00:20:17.411Z,11.52
2023-05-04T00:23:20.061Z,11.56
2023-05-04T00:26:22.632Z,11.41
2023-05-04T00:29:25.363Z,11.38
2023-05-04T00:32:28.206Z,11.44
2023-05-04T00:35:31.872Z,11.38
2023-05-04T00:38:51.316Z,11.37
2023-05-04T00:41:54.060Z,11.26
2023-05-04T00:44:56.505Z,11.27
2023-05-04T00:48:00.251Z,11.20
2023-05-04T00:51:04.772Z,11.23
2023-05-04T00:54:08.199Z,11.20
2023-05-04T00:57:10.728Z,11.23
2023-05-04T01:00:13.839Z,11.21
2023-05-04T01:03:18.785Z,11.28
2023-05-04T01:06:45.478Z,11.10
2023-05-04T01:10:02.024Z,11.06
2023-05-04T01:13:16.608Z,11.08
2023-05-04T01:16:19.673Z,11.00
2023-05-04T01:19:22.762Z,11.05
2023-05-04T01:22:26.534Z,11.11
2023-05-04T01:25:34.680Z,11.10
2023-05-04T01:28:49.309Z,11.08
2023-05-04T01:31:54.071Z,11.08
2023-05-04T01:34:57.693Z,10.97
2023-05-04T01:38:02.117Z,10.94
2023-05-04T01:41:04.732Z,11.00
2023-05-04T01:44:07.929Z,11.01
2023-05-04T01:47:10.399Z,10.96
2023-05-04T01:50:13.205Z,11.00
2023-05-04T01:53:15.670Z,11.03
2023-05-04T01:56:18.746Z,11.05
2023-05-04T01:59:21.313Z,11.10
2023-05-04T02:02:24.252Z,10.96
2023-05-04T02:05:26.728Z,11.02
2023-05-04T02:08:29.451Z,10.99
2023-05-04T02:11:32.491Z,11.00
2023-05-04T02:14:35.344Z,10.96
2023-05-04T02:17:37.878Z,11.00
2023-05-04T02:20:42.046Z,11.02
2023-05-04T02:23:44.630Z,11.08
2023-05-04T02:26:47.189Z,11.08
2023-05-04T02:29:50.473Z,10.95
2023-05-04T02:32:53.217Z,10.93
2023-05-04T02:35:58.113Z,10.86
2023-05-04T02:39:01.504Z,10.90
2023-05-04T02:42:04.141Z,10.81
2023-05-04T02:45:07.859Z,10.90
2023-05-04T02:48:10.305Z,10.77
2023-05-04T02:51:13.992Z,10.86
2023-05-04T02:54:16.925Z,10.72
2023-05-04T02:57:19.664Z,10.76
2023-05-04T03:00:23.077Z,10.75
2023-05-04T03:03:25.831Z,10.65
2023-05-04T03:06:28.608Z,10.75
2023-05-04T03:09:31.674Z,10.78
2023-05-04T03:12:34.459Z,10.68
2023-05-04T03:15:37.351Z,10.58
2023-05-04T03:22:00.928Z,10.73
2023-05-04T03:25:04.448Z,10.81
2023-05-04T03:28:07.264Z,10.69
2023-05-04T03:31:10.483Z,10.57
2023-05-04T03:34:15.105Z,10.49
2023-05-04T03:37:17.919Z,10.58
2023-05-04T03:40:24.438Z,10.81
2023-05-04T03:43:29.436Z,10.87
2023-05-04T03:46:34.727Z,10.95
2023-05-04T03:49:37.648Z,10.92
2023-05-04T03:52:41.953Z,10.90
2023-05-04T03:55:45.571Z,10.89
2023-05-04T03:58:48.480Z,10.87
2023-05-04T04:01:55.829Z,10.95
2023-05-04T04:04:58.730Z,11.02
2023-05-04T04:08:01.319Z,10.93
2023-05-04T04:11:07.023Z,10.93
2023-05-04T04:14:09.563Z,10.91
2023-05-04T04:17:12.301Z,10.95
2023-05-04T04:20:17.068Z,11.13
2023-05-04T04:23:20.567Z,11.31
2023-05-04T04:26:23.191Z,11.35
2023-05-04T04:29:26.085Z,11.37
2023-05-04T04:32:29.195Z,11.40
2023-05-04T04:35:32.882Z,11.58
2023-05-04T04:38:35.635Z,11.57
2023-05-04T04:41:38.580Z,11.61
2023-05-04T04:44:41.002Z,11.72
2023-05-04T04:47:43.771Z,11.88
2023-05-04T04:50:49.292Z,11.95
2023-05-04T04:53:52.647Z,11.96
2023-05-04T04:56:55.716Z,12.04
2023-05-04T04:59:58.407Z,12.16
2023-05-04T05:03:01.300Z,12.05
2023-05-04T05:06:04.250Z,12.11
2023-05-04T05:09:07.085Z,12.34
2023-05-04T05:12:09.688Z,12.67
2023-05-04T05:15:12.809Z,12.81
2023-05-04T05:18:15.361Z,13.15
2023-05-04T05:21:18.469Z,13.17
2023-05-04T05:24:21.206Z,13.32
2023-05-04T05:27:23.742Z,13.51
2023-05-04T05:30:28.665Z,13.54
2023-05-04T05:33:31.434Z,13.68
2023-05-04T05:36:33.988Z,14.04
2023-05-04T05:39:37.158Z,14.18
2023-05-04T05:42:40.173Z,14.30
2023-05-04T05:45:43.183Z,14.61
2023-05-04T05:48:46.010Z,14.90
2023-05-04T05:51:48.815Z,15.08
2023-05-04T05:54:51.337Z,15.00
2023-05-04T05:57:54.224Z,15.00
2023-05-04T06:00:57.768Z,14.72
2023-05-04T06:04:00.697Z,14.81
2023-05-04T06:07:03.543Z,15.70
2023-05-04T06:10:06.707Z,16.16
2023-05-04T06:13:09.592Z,17.03
2023-05-04T06:16:12.665Z,16.56
2023-05-04T06:19:15.511Z,15.78
2023-05-04T06:22:18.192Z,15.71
2023-05-04T06:25:21.115Z,16.64
2023-05-04T06:28:23.793Z,16.33
2023-05-04T06:31:26.561Z,16.06
2023-05-04T06:34:29.689Z,15.55
2023-05-04T06:37:32.518Z,15.95
2023-05-04T06:40:36.955Z,15.62
2023-05-04T06:43:42.264Z,15.27
2023-05-04T06:46:44.931Z,15.76
2023-05-04T06:49:47.558Z,15.39
2023-05-04T06:52:50.278Z,15.48
2023-05-04T06:55:53.029Z,15.50
2023-05-04T06:58:55.783Z,15.46
2023-05-04T07:01:58.383Z,15.15
2023-05-04T07:05:02.160Z,15.20
2023-05-04T07:08:04.997Z,15.34
2023-05-04T07:11:09.713Z,15.05
2023-05-04T07:14:12.384Z,15.01
2023-05-04T07:17:15.133Z,14.85
2023-05-04T07:20:17.709Z,14.75
2023-05-04T07:23:20.494Z,14.66
2023-05-04T07:26:23.463Z,14.59
2023-05-04T07:29:26.505Z,14.66
2023-05-04T07:32:29.373Z,14.63
2023-05-04T07:35:31.985Z,15.19
2023-05-04T07:38:35.434Z,15.32
2023-05-04T07:41:38.198Z,15.25
2023-05-04T07:44:41.567Z,15.45
2023-05-04T07:47:44.362Z,15.16
2023-05-04T07:50:47.168Z,15.16
2023-05-04T07:53:49.707Z,15.68
2023-05-04T07:56:52.340Z,15.82
2023-05-04T07:59:55.969Z,15.35
2023-05-04T08:02:58.804Z,15.06
2023-05-04T08:06:02.083Z,15.21
2023-05-04T08:09:05.029Z,15.42
2023-05-04T08:12:07.747Z,15.55
2023-05-04T08:15:10.689Z,15.36
2023-05-04T08:18:13.299Z,15.55
2023-05-04T08:21:16.543Z,15.69
2023-05-04T08:24:19.173Z,17.97
2023-05-04T08:27:21.888Z,19.71
2023-05-04T08:30:24.653Z,18.97
2023-05-04T08:33:27.214Z,19.11
2023-05-04T08:36:31.799Z,19.88
2023-05-04T08:39:34.986Z,20.51
2023-05-04T08:42:38.226Z,21.75
2023-05-04T08:45:41.131Z,21.98
2023-05-04T08:48:45.008Z,21.12
2023-05-04T08:51:50.177Z,20.32
2023-05-04T08:54:57.007Z,20.15
2023-05-04T08:58:04.078Z,20.63
2023-05-04T09:01:08.425Z,20.11
2023-05-04T09:04:11.701Z,19.39
2023-05-04T09:07:14.470Z,20.74
2023-05-04T09:10:18.754Z,21.26
2023-05-04T09:13:21.676Z,20.68
2023-05-04T09:16:34.107Z,21.59
2023-05-04T09:19:36.950Z,20.33
2023-05-04T09:22:39.909Z,19.41
2023-05-04T09:25:53.394Z,19.43
2023-05-04T09:28:56.784Z,19.62
2023-05-04T09:31:59.406Z,20.29
2023-05-04T09:35:02.501Z,20.76
2023-05-04T09:38:05.233Z,21.77
2023-05-04T09:41:09.277Z,22.41
2023-05-04T09:44:23.116Z,22.81
2023-05-04T09:47:35.565Z,22.62
2023-05-04T09:50:40.229Z,22.99
2023-05-04T09:53:43.335Z,23.11
2023-05-04T09:56:49.393Z,23.95
2023-05-04T09:59:52.433Z,24.54
2023-05-04T10:02:55.633Z,23.94
2023-05-04T10:06:06.096Z,22.98
2023-05-04T10:09:10.053Z,21.70
2023-05-04T10:12:12.665Z,21.78
2023-05-04T10:15:17.176Z,22.96
2023-05-04T10:19:00.963Z,24.26
2023-05-04T10:22:24.860Z,22.67
2023-05-04T10:25:28.139Z,24.80
2023-05-04T10:28:40.658Z,24.78
2023-05-04T10:31:44.338Z,25.58
2023-05-04T10:34:47.599Z,26.16
2023-05-04T10:37:54.689Z,25.41
2023-05-04T10:40:59.184Z,25.18
2023-05-04T10:44:06.626Z,24.68
2023-05-04T10:47:09.296Z,24.86
2023-05-04T10:50:14.729Z,24.75
2023-05-04T10:53:18.374Z,25.23
2023-05-04T10:56:25.405Z,25.48
2023-05-04T10:59:27.958Z,25.19
2023-05-04T11:02:33.045Z,24.53
2023-05-04T11:05:47.089Z,24.81
2023-05-04T11:09:00.514Z,23.95
2023-05-04T11:12:03.262Z,24.62
2023-05-04T11:15:10.188Z,25.36
2023-05-04T11:18:13.064Z,24.80
2023-05-04T11:21:25.991Z,25.12
2023-05-04T11:24:48.874Z,25.61
2023-05-04T11:27:51.714Z,25.29
2023-05-04T11:30:56.103Z,24.42
2023-05-04T11:33:58.955Z,25.33
2023-05-04T11:37:08.341Z,23.71
2023-05-04T11:40:15.330Z,24.40
2023-05-04T11:43:18.400Z,22.52
2023-05-04T11:46:21.484Z,22.04
2023-05-04T11:49:26.062Z,21.57
2023-05-04T11:52:30.874Z,20.90
2023-05-04T11:55:33.486Z,23.05
2023-05-04T11:58:36.888Z,24.03
2023-05-04T12:01:39.818Z,25.04
2023-05-04T12:04:42.519Z,23.60
2023-05-04T12:07:45.125Z,23.46
2023-05-04T12:10:49.808Z,24.14
2023-05-04T12:14:14.071Z,25.40
2023-05-04T12:17:16.613Z,25.25
2023-05-04T12:20:24.933Z,24.85
2023-05-04T12:23:28.001Z,24.80
2023-05-04T12:26:30.590Z,25.29
2023-05-04T12:29:33.143Z,25.39
2023-05-04T12:32:35.742Z,25.68
2023-05-04T12:35:38.341Z,25.65
2023-05-04T12:38:40.863Z,25.58
2023-05-04T12:41:43.554Z,26.10
2023-05-04T12:44:46.236Z,24.97
2023-05-04T12:47:48.907Z,25.48
2023-05-04T12:50:53.270Z,25.30
2023-05-04T12:53:57.967Z,24.20
2023-05-04T12:57:00.495Z,24.51
2023-05-04T13:00:04.393Z,24.97
2023-05-04T13:03:08.706Z,24.08
2023-05-04T13:06:11.358Z,24.47
2023-05-04T13:09:13.905Z,23.54
2023-05-04T13:12:16.727Z,23.44
2023-05-04T13:15:19.418Z,23.62
2023-05-04T13:18:27.315Z,23.53
2023-05-04T13:21:30.210Z,23.48
2023-05-04T13:24:33.131Z,23.49
2023-05-04T13:27:35.761Z,23.51
2023-05-04T13:30:43.788Z,23.28
2023-05-04T13:33:47.056Z,23.29
2023-05-04T13:36:49.667Z,23.35
2023-05-04T13:39:52.481Z,23.29
2023-05-04T13:42:54.959Z,22.88
2023-05-04T13:46:02.017Z,22.70
2023-05-04T13:49:04.698Z,23.27
2023-05-04T13:52:07.853Z,23.52
2023-05-04T13:55:10.485Z,23.76
2023-05-04T13:58:13.330Z,23.29
2023-05-04T14:01:16.707Z,23.13
2023-05-04T14:04:19.330Z,23.10
2023-05-04T14:07:21.921Z,23.29
2023-05-04T14:10:27.527Z,23.00
2023-05-04T14:13:30.045Z,22.84
2023-05-04T14:16:32.987Z,23.06
2023-05-04T14:19:36.039Z,23.14
2023-05-04T14:22:41.387Z,22.68
2023-05-04T14:25:50.470Z,22.70
2023-05-04T14:28:53.659Z,22.41
2023-05-04T14:31:56.524Z,22.53
2023-05-04T14:35:08.499Z,21.99
2023-05-04T14:38:12.602Z,22.19
2023-05-04T14:41:15.586Z,22.02
2023-05-04T14:44:18.094Z,21.81
2023-05-04T14:47:21.067Z,21.78
2023-05-04T14:50:26.874Z,21.54
2023-05-04T14:53:33.670Z,21.46
2023-05-04T14:56:36.242Z,21.14
2023-05-04T14:59:40.172Z,21.48
2023-05-04T15:02:42.658Z,21.45
2023-05-04T15:05:45.615Z,20.97
2023-05-04T15:08:48.098Z,20.98
2023-05-04T15:11:51.060Z,21.12
2023-05-04T15:14:53.748Z,20.99
2023-05-04T15:17:56.844Z,21.00
2023-05-04T15:21:01.426Z,20.70
2023-05-04T15:24:04.678Z,20.74
2023-05-04T15:27:07.110Z,20.45
2023-05-04T15:30:11.683Z,20.48
2023-05-04T15:33:14.317Z,20.50
2023-05-04T15:36:17.235Z,20.59
2023-05-04T15:39:20.068Z,20.51
2023-05-04T15:42:22.947Z,20.45
2023-05-04T15:45:26.162Z,20.39
2023-05-04T15:48:28.864Z,20.18
2023-05-04T15:51:32.001Z,19.86
2023-05-04T15:54:35.365Z,19.94
2023-05-04T15:57:37.765Z,19.82
2023-05-04T16:00:43.133Z,19.57
2023-05-04T16:03:45.854Z,19.31
2023-05-04T16:06:48.602Z,19.12
2023-05-04T16:09:51.099Z,18.98
2023-05-04T16:12:53.996Z,18.82
2023-05-04T16:15:58.140Z,18.67
2023-05-04T16:19:00.958Z,18.57
2023-05-04T16:22:03.614Z,18.42
2023-05-04T16:25:08.859Z,18.33
2023-05-04T16:28:12.802Z,18.38
2023-05-04T16:31:16.004Z,18.48
2023-05-04T16:34:18.730Z,18.30
2023-05-04T16:37:21.766Z,18.38
2023-05-04T16:40:25.182Z,17.90
2023-05-04T16:43:27.976Z,17.81
2023-05-04T16:46:30.964Z,17.61
2023-05-04T16:49:33.985Z,17.49
2023-05-04T16:52:36.829Z,17.40
2023-05-04T16:55:39.485Z,17.31
2023-05-04T16:58:42.014Z,17.32
2023-05-04T17:01:44.991Z,17.30
2023-05-04T17:04:47.629Z,17.10
2023-05-04T17:07:50.423Z,16.84
2023-05-04T17:10:58.085Z,16.75
2023-05-04T17:14:01.548Z,16.56
2023-05-04T17:17:04.153Z,16.40
2023-05-04T17:20:09.492Z,16.17
2023-05-04T17:23:14.045Z,16.05
2023-05-04T17:26:16.879Z,15.83
2023-05-04T17:29:19.959Z,15.84
2023-05-04T17:32:22.919Z,15.73
2023-05-04T17:35:26.775Z,15.69
2023-05-04T17:38:30.053Z,15.54
2023-05-04T17:41:32.772Z,15.46
2023-05-04T17:44:35.492Z,15.39
2023-05-04T17:47:38.321Z,15.28
2023-05-04T17:50:41.326Z,15.25
2023-05-04T17:53:44.361Z,15.10
2023-05-04T17:56:46.887Z,15.05
2023-05-04T17:59:49.651Z,14.90
2023-05-04T18:02:52.679Z,14.85
2023-05-04T18:05:55.200Z,14.81
2023-05-04T18:08:58.216Z,14.74
2023-05-04T18:12:01.010Z,14.69
2023-05-04T18:15:03.868Z,14.50
2023-05-04T18:18:06.746Z,14.50
2023-05-04T18:21:09.486Z,14.35
2023-05-04T18:24:12.192Z,14.33
2023-05-04T18:27:14.819Z,14.29
2023-05-04T18:30:18.821Z,14.27
2023-05-04T18:33:21.706Z,14.20
2023-05-04T18:36:24.526Z,14.19
2023-05-04T18:39:27.842Z,14.07
2023-05-04T18:42:30.764Z,13.94
2023-05-04T18:45:33.727Z,13.86
2023-05-04T18:48:36.805Z,13.85
2023-05-04T18:51:41.905Z,13.79
2023-05-04T18:54:44.695Z,13.82
2023-05-04T18:57:47.677Z,13.81
2023-05-04T19:00:51.735Z,13.82
2023-05-04T19:03:54.593Z,13.74
2023-05-04T19:06:59.934Z,13.60
2023-05-04T19:10:04.235Z,13.48
2023-05-04T19:13:07.400Z,13.40
2023-05-04T19:16:13.272Z,13.38
2023-05-04T19:19:16.142Z,13.29
2023-05-04T19:22:18.748Z,13.27
2023-05-04T19:25:33.575Z,13.19
2023-05-04T19:28:40.015Z,13.06
2023-05-04T19:31:43.280Z,13.02
2023-05-04T19:34:46.409Z,13.00
2023-05-04T19:37:49.442Z,12.94
2023-05-04T19:40:54.395Z,12.88
2023-05-04T19:43:57.114Z,12.88
2023-05-04T19:47:00.526Z,12.78
2023-05-04T19:50:03.923Z,12.82
2023-05-04T19:53:06.956Z,12.95
2023-05-04T19:56:09.797Z,12.98
2023-05-04T19:59:12.751Z,12.90
2023-05-04T20:02:15.724Z,12.82
2023-05-04T20:05:18.515Z,12.80
2023-05-04T20:08:20.964Z,12.85
2023-05-04T20:11:24.296Z,12.69
2023-05-04T20:14:26.778Z,12.77
2023-05-04T20:17:29.661Z,12.86
2023-05-04T20:20:33.067Z,12.94
2023-05-04T20:23:35.792Z,12.87
2023-05-04T20:26:38.409Z,12.80
2023-05-04T20:29:41.081Z,12.86
2023-05-04T20:32:44.075Z,12.67
2023-05-04T20:35:46.930Z,12.37
2023-05-04T20:38:49.576Z,12.52
2023-05-04T20:41:53.295Z,12.69
2023-05-04T20:44:56.089Z,12.68
2023-05-04T20:47:59.104Z,12.61
2023-05-04T20:51:14.069Z,12.73
2023-05-04T20:54:18.555Z,12.73
2023-05-04T20:57:21.149Z,12.54
2023-05-04T21:00:26.617Z,12.43
2023-05-04T21:03:29.474Z,12.39
2023-05-04T21:06:32.372Z,12.11
2023-05-04T21:09:34.801Z,11.90
2023-05-04T21:12:37.779Z,11.88
2023-05-04T21:15:40.660Z,11.70
2023-05-04T21:18:45.034Z,11.60
2023-05-04T21:21:47.441Z,11.69
2023-05-04T21:24:50.405Z,11.86
2023-05-04T21:27:52.996Z,11.88
2023-05-04T21:30:59.027Z,11.83
2023-05-04T21:34:01.853Z,11.74
2023-05-04T21:37:04.577Z,11.75
2023-05-04T21:40:09.295Z,11.68
2023-05-04T21:43:12.821Z,11.66
2023-05-04T21:46:16.068Z,11.52
2023-05-04T21:49:18.953Z,11.60
2023-05-04T21:52:21.733Z,11.56
2023-05-04T21:55:24.459Z,11.43
2023-05-04T21:58:27.340Z,11.33
2023-05-04T22:01:30.932Z,11.32
2023-05-04T22:04:33.701Z,11.24
2023-05-04T22:07:36.845Z,11.05
2023-05-04T22:10:40.428Z,11.06
2023-05-04T22:13:54.425Z,11.06
2023-05-04T22:16:56.965Z,11.07
2023-05-04T22:20:00.485Z,11.08
2023-05-04T22:23:02.928Z,11.12
2023-05-04T22:26:05.866Z,11.05
2023-05-04T22:29:08.667Z,11.10
2023-05-04T22:32:11.625Z,11.04
2023-05-04T22:35:14.264Z,10.98
2023-05-04T22:38:17.349Z,11.11
2023-05-04T22:41:19.791Z,11.07
2023-05-04T22:44:22.709Z,11.05
2023-05-04T22:47:25.772Z,11.14
2023-05-04T22:50:28.800Z,11.04
2023-05-04T22:53:31.685Z,11.09
2023-05-04T22:56:34.405Z,11.01
2023-05-04T22:59:37.349Z,11.00
2023-05-04T23:02:40.451Z,11.14
2023-05-04T23:05:43.678Z,11.30
2023-05-04T23:08:47.174Z,11.22
2023-05-04T23:11:49.643Z,11.27
2023-05-04T23:14:52.704Z,11.22
2023-05-04T23:17:55.197Z,11.08
2023-05-04T23:20:57.977Z,11.14
2023-05-04T23:24:00.557Z,11.24
2023-05-04T23:27:03.406Z,11.41
2023-05-04T23:30:06.949Z,11.41
2023-05-04T23:33:09.945Z,11.51
2023-05-04T23:36:12.427Z,11.70
2023-05-04T23:39:16.240Z,11.71
2023-05-04T23:42:18.964Z,11.47
2023-05-04T23:45:21.764Z,11.42
2023-05-04T23:48:24.406Z,11.45
2023-05-04T23:51:28.875Z,11.35
2023-05-04T23:54:31.896Z,11.29
2023-05-04T23:57:34.544Z,11.30
